> <
  • 1
  • 2

Novidades

  • Temos o prazer de lhe apresentar… Ler mais +
  • Está disponível a secção Multimédia no… Ler mais +
  • 1
[source: ADDS]
METAR
LPPR 202000Z 34005KT CAVOK 24/16 Q1014 =
TAF
TAF LPPR 201700Z 2018/2118 32007KT CAVOK BECMG 2018/2020 VRB03KT BECMG 2100/2102 09007KT BECMG 2110/2112 25005KT BECMG 2114/2116 30007KT =

contactos